sensor_id;sensor_type;location;lat;lon;timestamp;P1;durP1;ratioP1;P2;durP2;ratioP2
78141;SDS011;67393;52.620;13.482;2024-02-15T00:01:50;12.93;;;8.07;;
78141;SDS011;67393;52.620;13.482;2024-02-15T00:04:16;12.63;;;8.05;;
78141;SDS011;67393;52.620;13.482;2024-02-15T00:06:42;13.60;;;8.07;;
78141;SDS011;67393;52.620;13.482;2024-02-15T00:09:09;15.82;;;8.73;;
78141;SDS011;67393;52.620;13.482;2024-02-15T00:11:35;13.65;;;7.43;;
78141;SDS011;67393;52.620;13.482;2024-02-15T00:14:01;13.52;;;8.38;;
78141;SDS011;67393;52.620;13.482;2024-02-15T00:16:27;17.80;;;7.50;;
78141;SDS011;67393;52.620;13.482;2024-02-15T00:18:54;14.77;;;8.13;;
78141;SDS011;67393;52.620;13.482;2024-02-15T00:21:21;14.73;;;8.18;;
78141;SDS011;67393;52.620;13.482;2024-02-15T00:23:47;12.32;;;7.35;;
78141;SDS011;67393;52.620;13.482;2024-02-15T00:26:13;12.65;;;8.07;;
78141;SDS011;67393;52.620;13.482;2024-02-15T00:28:43;11.65;;;7.88;;
78141;SDS011;67393;52.620;13.482;2024-02-15T00:31:09;13.45;;;7.05;;
78141;SDS011;67393;52.620;13.482;2024-02-15T00:33:35;14.68;;;8.52;;
78141;SDS011;67393;52.620;13.482;2024-02-15T00:36:02;16.23;;;8.65;;
78141;SDS011;67393;52.620;13.482;2024-02-15T00:38:29;14.13;;;7.57;;
78141;SDS011;67393;52.620;13.482;2024-02-15T00:40:55;14.15;;;7.43;;
78141;SDS011;67393;52.620;13.482;2024-02-15T00:43:21;12.98;;;7.70;;
78141;SDS011;67393;52.620;13.482;2024-02-15T00:45:47;14.23;;;7.63;;
78141;SDS011;67393;52.620;13.482;2024-02-15T00:48:14;15.63;;;7.80;;
78141;SDS011;67393;52.620;13.482;2024-02-15T00:50:40;14.98;;;7.82;;
78141;SDS011;67393;52.620;13.482;2024-02-15T00:53:06;11.82;;;7.32;;
78141;SDS011;67393;52.620;13.482;2024-02-15T00:55:33;12.02;;;7.32;;
78141;SDS011;67393;52.620;13.482;2024-02-15T00:57:59;14.35;;;7.93;;
78141;SDS011;67393;52.620;13.482;2024-02-15T01:00:25;17.88;;;7.72;;
78141;SDS011;67393;52.620;13.482;2024-02-15T01:02:51;15.68;;;7.70;;
78141;SDS011;67393;52.620;13.482;2024-02-15T01:05:18;12.93;;;7.32;;
78141;SDS011;67393;52.620;13.482;2024-02-15T01:07:44;13.15;;;7.55;;
78141;SDS011;67393;52.620;13.482;2024-02-15T01:10:11;11.32;;;7.88;;
78141;SDS011;67393;52.620;13.482;2024-02-15T01:12:37;15.18;;;7.85;;
78141;SDS011;67393;52.620;13.482;2024-02-15T01:15:03;13.38;;;8.07;;
78141;SDS011;67393;52.620;13.482;2024-02-15T01:17:30;15.13;;;8.13;;
78141;SDS011;67393;52.620;13.482;2024-02-15T01:19:56;15.88;;;8.15;;
78141;SDS011;67393;52.620;13.482;2024-02-15T01:22:22;14.18;;;7.60;;
78141;SDS011;67393;52.620;13.482;2024-02-15T01:24:49;13.40;;;8.15;;
78141;SDS011;67393;52.620;13.482;2024-02-15T01:27:15;13.27;;;8.50;;
78141;SDS011;67393;52.620;13.482;2024-02-15T01:29:41;15.13;;;8.30;;
78141;SDS011;67393;52.620;13.482;2024-02-15T01:32:07;14.93;;;8.40;;
78141;SDS011;67393;52.620;13.482;2024-02-15T01:34:34;15.35;;;8.48;;
78141;SDS011;67393;52.620;13.482;2024-02-15T01:37:00;17.65;;;9.15;;
78141;SDS011;67393;52.620;13.482;2024-02-15T01:39:26;15.35;;;8.63;;
78141;SDS011;67393;52.620;13.482;2024-02-15T01:41:53;17.50;;;9.18;;
78141;SDS011;67393;52.620;13.482;2024-02-15T01:44:19;18.05;;;9.07;;
78141;SDS011;67393;52.620;13.482;2024-02-15T01:46:45;15.57;;;8.82;;
78141;SDS011;67393;52.620;13.482;2024-02-15T01:49:13;15.68;;;7.75;;
78141;SDS011;67393;52.620;13.482;2024-02-15T01:51:39;12.80;;;8.20;;
78141;SDS011;67393;52.620;13.482;2024-02-15T01:54:06;15.55;;;10.02;;
78141;SDS011;67393;52.620;13.482;2024-02-15T01:56:32;14.95;;;8.95;;
78141;SDS011;67393;52.620;13.482;2024-02-15T01:58:59;18.40;;;9.80;;
78141;SDS011;67393;52.620;13.482;2024-02-15T02:01:25;17.65;;;9.48;;
78141;SDS011;67393;52.620;13.482;2024-02-15T02:03:52;14.18;;;8.55;;
78141;SDS011;67393;52.620;13.482;2024-02-15T02:06:18;13.63;;;8.75;;
78141;SDS011;67393;52.620;13.482;2024-02-15T02:08:44;16.23;;;9.20;;
78141;SDS011;67393;52.620;13.482;2024-02-15T02:11:11;19.45;;;9.02;;
78141;SDS011;67393;52.620;13.482;2024-02-15T02:13:37;18.25;;;9.32;;
78141;SDS011;67393;52.620;13.482;2024-02-15T02:16:03;21.77;;;10.32;;
78141;SDS011;67393;52.620;13.482;2024-02-15T02:18:29;19.17;;;10.30;;
78141;SDS011;67393;52.620;13.482;2024-02-15T02:20:56;19.77;;;9.80;;
78141;SDS011;67393;52.620;13.482;2024-02-15T02:23:24;14.93;;;8.18;;
78141;SDS011;67393;52.620;13.482;2024-02-15T02:25:51;18.75;;;9.07;;
78141;SDS011;67393;52.620;13.482;2024-02-15T02:28:18;18.02;;;9.63;;
78141;SDS011;67393;52.620;13.482;2024-02-15T02:30:44;20.23;;;9.80;;
78141;SDS011;67393;52.620;13.482;2024-02-15T02:33:13;16.70;;;8.38;;
78141;SDS011;67393;52.620;13.482;2024-02-15T02:35:40;20.05;;;9.45;;
78141;SDS011;67393;52.620;13.482;2024-02-15T02:38:06;16.83;;;8.80;;
78141;SDS011;67393;52.620;13.482;2024-02-15T02:40:32;20.05;;;10.43;;
78141;SDS011;67393;52.620;13.482;2024-02-15T02:42:59;17.00;;;9.73;;
78141;SDS011;67393;52.620;13.482;2024-02-15T02:45:25;19.55;;;9.55;;
78141;SDS011;67393;52.620;13.482;2024-02-15T02:47:52;19.30;;;10.35;;
78141;SDS011;67393;52.620;13.482;2024-02-15T02:50:22;25.50;;;10.05;;
78141;SDS011;67393;52.620;13.482;2024-02-15T02:52:49;20.63;;;10.13;;
78141;SDS011;67393;52.620;13.482;2024-02-15T02:55:15;21.92;;;10.45;;
78141;SDS011;67393;52.620;13.482;2024-02-15T02:57:42;23.13;;;9.98;;
78141;SDS011;67393;52.620;13.482;2024-02-15T03:00:09;21.35;;;11.00;;
78141;SDS011;67393;52.620;13.482;2024-02-15T03:02:36;21.02;;;9.77;;
78141;SDS011;67393;52.620;13.482;2024-02-15T03:05:05;21.27;;;10.30;;
78141;SDS011;67393;52.620;13.482;2024-02-15T03:07:35;21.27;;;10.85;;
78141;SDS011;67393;52.620;13.482;2024-02-15T03:10:02;24.30;;;11.23;;
78141;SDS011;67393;52.620;13.482;2024-02-15T03:12:28;25.65;;;11.50;;
78141;SDS011;67393;52.620;13.482;2024-02-15T03:14:54;22.00;;;11.35;;
78141;SDS011;67393;52.620;13.482;2024-02-15T03:17:21;18.67;;;9.63;;
78141;SDS011;67393;52.620;13.482;2024-02-15T03:19:48;24.50;;;11.30;;
78141;SDS011;67393;52.620;13.482;2024-02-15T03:22:14;24.58;;;11.43;;
78141;SDS011;67393;52.620;13.482;2024-02-15T03:24:41;20.80;;;10.93;;
78141;SDS011;67393;52.620;13.482;2024-02-15T03:27:07;21.70;;;11.07;;
78141;SDS011;67393;52.620;13.482;2024-02-15T03:29:34;21.50;;;11.07;;
78141;SDS011;67393;52.620;13.482;2024-02-15T03:32:00;23.45;;;11.10;;
78141;SDS011;67393;52.620;13.482;2024-02-15T03:34:26;25.10;;;11.77;;
78141;SDS011;67393;52.620;13.482;2024-02-15T03:36:53;22.65;;;10.43;;
78141;SDS011;67393;52.620;13.482;2024-02-15T03:39:19;20.20;;;11.00;;
78141;SDS011;67393;52.620;13.482;2024-02-15T03:41:46;25.00;;;10.93;;
78141;SDS011;67393;52.620;13.482;2024-02-15T03:44:12;21.25;;;10.70;;
78141;SDS011;67393;52.620;13.482;2024-02-15T03:46:38;24.13;;;11.15;;
78141;SDS011;67393;52.620;13.482;2024-02-15T03:49:04;18.17;;;10.50;;
78141;SDS011;67393;52.620;13.482;2024-02-15T03:51:31;21.25;;;10.85;;
78141;SDS011;67393;52.620;13.482;2024-02-15T03:53:57;23.52;;;11.02;;
78141;SDS011;67393;52.620;13.482;2024-02-15T03:56:23;23.98;;;11.95;;
78141;SDS011;67393;52.620;13.482;2024-02-15T03:58:49;20.05;;;10.77;;
78141;SDS011;67393;52.620;13.482;2024-02-15T04:01:16;22.75;;;11.48;;
78141;SDS011;67393;52.620;13.482;2024-02-15T04:03:42;18.92;;;9.48;;
78141;SDS011;67393;52.620;13.482;2024-02-15T04:06:08;20.20;;;10.18;;
78141;SDS011;67393;52.620;13.482;2024-02-15T04:08:36;25.33;;;11.95;;
78141;SDS011;67393;52.620;13.482;2024-02-15T04:11:02;22.45;;;10.27;;
78141;SDS011;67393;52.620;13.482;2024-02-15T04:13:28;21.35;;;10.82;;
78141;SDS011;67393;52.620;13.482;2024-02-15T04:15:54;24.25;;;10.98;;
78141;SDS011;67393;52.620;13.482;2024-02-15T04:18:21;20.33;;;9.82;;
78141;SDS011;67393;52.620;13.482;2024-02-15T04:20:47;19.50;;;10.82;;
78141;SDS011;67393;52.620;13.482;2024-02-15T04:23:13;21.27;;;10.98;;
78141;SDS011;67393;52.620;13.482;2024-02-15T04:25:40;20.83;;;10.30;;
78141;SDS011;67393;52.620;13.482;2024-02-15T04:28:06;22.30;;;10.48;;
78141;SDS011;67393;52.620;13.482;2024-02-15T04:30:32;21.83;;;10.27;;
78141;SDS011;67393;52.620;13.482;2024-02-15T04:32:58;23.38;;;10.90;;
78141;SDS011;67393;52.620;13.482;2024-02-15T04:35:25;22.98;;;10.93;;
78141;SDS011;67393;52.620;13.482;2024-02-15T04:37:51;20.17;;;10.27;;
78141;SDS011;67393;52.620;13.482;2024-02-15T04:40:17;23.30;;;10.90;;
78141;SDS011;67393;52.620;13.482;2024-02-15T04:42:43;22.77;;;10.63;;
78141;SDS011;67393;52.620;13.482;2024-02-15T04:45:10;21.85;;;10.75;;
78141;SDS011;67393;52.620;13.482;2024-02-15T04:47:36;24.05;;;11.90;;
78141;SDS011;67393;52.620;13.482;2024-02-15T04:50:03;24.38;;;11.63;;
78141;SDS011;67393;52.620;13.482;2024-02-15T04:52:29;20.80;;;9.65;;
78141;SDS011;67393;52.620;13.482;2024-02-15T04:54:55;23.23;;;11.50;;
78141;SDS011;67393;52.620;13.482;2024-02-15T04:57:22;28.92;;;11.95;;
78141;SDS011;67393;52.620;13.482;2024-02-15T04:59:48;22.63;;;11.35;;
78141;SDS011;67393;52.620;13.482;2024-02-15T05:02:14;24.13;;;11.25;;
78141;SDS011;67393;52.620;13.482;2024-02-15T05:04:40;26.00;;;11.48;;
78141;SDS011;67393;52.620;13.482;2024-02-15T05:07:07;27.13;;;11.50;;
78141;SDS011;67393;52.620;13.482;2024-02-15T05:09:33;25.63;;;11.50;;
78141;SDS011;67393;52.620;13.482;2024-02-15T05:12:00;23.08;;;10.60;;
78141;SDS011;67393;52.620;13.482;2024-02-15T05:14:27;24.20;;;12.18;;
78141;SDS011;67393;52.620;13.482;2024-02-15T05:16:53;25.85;;;12.35;;
78141;SDS011;67393;52.620;13.482;2024-02-15T05:19:19;29.42;;;11.98;;
78141;SDS011;67393;52.620;13.482;2024-02-15T05:21:46;26.27;;;11.40;;
78141;SDS011;67393;52.620;13.482;2024-02-15T05:24:13;24.73;;;12.35;;
78141;SDS011;67393;52.620;13.482;2024-02-15T05:26:40;25.00;;;12.02;;
78141;SDS011;67393;52.620;13.482;2024-02-15T05:29:06;23.92;;;11.13;;
78141;SDS011;67393;52.620;13.482;2024-02-15T05:31:32;26.98;;;13.68;;
78141;SDS011;67393;52.620;13.482;2024-02-15T05:33:58;20.80;;;10.48;;
78141;SDS011;67393;52.620;13.482;2024-02-15T05:36:25;20.40;;;10.82;;
78141;SDS011;67393;52.620;13.482;2024-02-15T05:38:53;29.10;;;11.57;;
78141;SDS011;67393;52.620;13.482;2024-02-15T05:41:19;27.23;;;11.85;;
78141;SDS011;67393;52.620;13.482;2024-02-15T05:43:46;24.30;;;10.82;;
78141;SDS011;67393;52.620;13.482;2024-02-15T05:46:13;24.20;;;10.68;;
78141;SDS011;67393;52.620;13.482;2024-02-15T05:48:39;25.83;;;11.55;;
78141;SDS011;67393;52.620;13.482;2024-02-15T05:51:06;25.90;;;11.48;;
78141;SDS011;67393;52.620;13.482;2024-02-15T05:53:33;23.60;;;11.35;;
78141;SDS011;67393;52.620;13.482;2024-02-15T05:55:59;23.55;;;10.90;;
78141;SDS011;67393;52.620;13.482;2024-02-15T05:58:25;27.38;;;11.75;;
78141;SDS011;67393;52.620;13.482;2024-02-15T06:00:52;25.90;;;10.93;;
78141;SDS011;67393;52.620;13.482;2024-02-15T06:03:18;24.90;;;11.20;;
78141;SDS011;67393;52.620;13.482;2024-02-15T06:05:45;24.63;;;11.02;;
78141;SDS011;67393;52.620;13.482;2024-02-15T06:08:11;25.02;;;11.63;;
78141;SDS011;67393;52.620;13.482;2024-02-15T06:10:38;26.98;;;12.52;;
78141;SDS011;67393;52.620;13.482;2024-02-15T06:13:04;26.30;;;11.90;;
78141;SDS011;67393;52.620;13.482;2024-02-15T06:15:30;21.35;;;10.38;;
78141;SDS011;67393;52.620;13.482;2024-02-15T06:17:57;26.10;;;12.30;;
78141;SDS011;67393;52.620;13.482;2024-02-15T06:20:23;24.23;;;11.70;;
78141;SDS011;67393;52.620;13.482;2024-02-15T06:22:50;25.25;;;12.73;;
78141;SDS011;67393;52.620;13.482;2024-02-15T06:25:16;30.50;;;12.07;;
78141;SDS011;67393;52.620;13.482;2024-02-15T06:27:42;29.77;;;11.23;;
78141;SDS011;67393;52.620;13.482;2024-02-15T06:30:09;27.00;;;12.55;;
78141;SDS011;67393;52.620;13.482;2024-02-15T06:32:36;26.00;;;12.57;;
78141;SDS011;67393;52.620;13.482;2024-02-15T06:35:02;28.50;;;11.43;;
78141;SDS011;67393;52.620;13.482;2024-02-15T06:37:35;23.27;;;10.93;;
78141;SDS011;67393;52.620;13.482;2024-02-15T06:40:01;24.25;;;11.48;;
78141;SDS011;67393;52.620;13.482;2024-02-15T06:42:28;24.33;;;11.80;;
78141;SDS011;67393;52.620;13.482;2024-02-15T06:44:54;24.02;;;11.27;;
78141;SDS011;67393;52.620;13.482;2024-02-15T06:47:20;24.88;;;10.48;;
78141;SDS011;67393;52.620;13.482;2024-02-15T06:49:46;23.10;;;11.55;;
78141;SDS011;67393;52.620;13.482;2024-02-15T06:52:13;21.80;;;11.27;;
78141;SDS011;67393;52.620;13.482;2024-02-15T06:54:39;21.63;;;10.43;;
78141;SDS011;67393;52.620;13.482;2024-02-15T06:57:06;20.92;;;10.38;;
78141;SDS011;67393;52.620;13.482;2024-02-15T06:59:33;22.15;;;11.43;;
78141;SDS011;67393;52.620;13.482;2024-02-15T07:02:00;24.33;;;10.05;;
78141;SDS011;67393;52.620;13.482;2024-02-15T07:04:26;25.52;;;11.10;;
78141;SDS011;67393;52.620;13.482;2024-02-15T07:06:53;23.73;;;9.73;;
78141;SDS011;67393;52.620;13.482;2024-02-15T07:09:20;22.02;;;10.05;;
78141;SDS011;67393;52.620;13.482;2024-02-15T07:11:46;22.25;;;10.30;;
78141;SDS011;67393;52.620;13.482;2024-02-15T07:14:17;24.52;;;10.48;;
78141;SDS011;67393;52.620;13.482;2024-02-15T07:16:44;25.25;;;11.35;;
78141;SDS011;67393;52.620;13.482;2024-02-15T07:19:10;19.88;;;10.02;;
78141;SDS011;67393;52.620;13.482;2024-02-15T07:21:37;23.23;;;10.18;;
78141;SDS011;67393;52.620;13.482;2024-02-15T07:24:03;25.15;;;10.18;;
78141;SDS011;67393;52.620;13.482;2024-02-15T07:26:29;22.05;;;10.63;;
78141;SDS011;67393;52.620;13.482;2024-02-15T07:28:56;21.15;;;9.68;;
78141;SDS011;67393;52.620;13.482;2024-02-15T07:31:22;25.20;;;10.00;;
78141;SDS011;67393;52.620;13.482;2024-02-15T07:33:52;22.67;;;10.25;;
78141;SDS011;67393;52.620;13.482;2024-02-15T07:36:21;22.17;;;10.23;;
78141;SDS011;67393;52.620;13.482;2024-02-15T07:38:49;23.45;;;10.15;;
78141;SDS011;67393;52.620;13.482;2024-02-15T07:41:16;21.08;;;9.77;;
78141;SDS011;67393;52.620;13.482;2024-02-15T07:43:43;21.58;;;10.70;;
78141;SDS011;67393;52.620;13.482;2024-02-15T07:46:12;20.83;;;10.75;;
78141;SDS011;67393;52.620;13.482;2024-02-15T07:48:39;21.42;;;10.00;;
78141;SDS011;67393;52.620;13.482;2024-02-15T07:51:05;23.80;;;10.57;;
78141;SDS011;67393;52.620;13.482;2024-02-15T07:53:32;17.80;;;8.68;;
78141;SDS011;67393;52.620;13.482;2024-02-15T07:55:58;19.25;;;9.60;;
78141;SDS011;67393;52.620;13.482;2024-02-15T07:58:24;20.58;;;10.27;;
78141;SDS011;67393;52.620;13.482;2024-02-15T08:00:50;20.23;;;9.63;;
78141;SDS011;67393;52.620;13.482;2024-02-15T08:03:17;19.15;;;9.45;;
78141;SDS011;67393;52.620;13.482;2024-02-15T08:05:43;20.33;;;9.52;;
78141;SDS011;67393;52.620;13.482;2024-02-15T08:08:09;21.30;;;9.32;;
78141;SDS011;67393;52.620;13.482;2024-02-15T08:10:36;21.25;;;10.32;;
78141;SDS011;67393;52.620;13.482;2024-02-15T08:13:02;21.08;;;9.63;;
78141;SDS011;67393;52.620;13.482;2024-02-15T08:15:28;19.45;;;9.95;;
78141;SDS011;67393;52.620;13.482;2024-02-15T08:17:55;20.05;;;10.10;;
78141;SDS011;67393;52.620;13.482;2024-02-15T08:20:21;21.77;;;10.05;;
78141;SDS011;67393;52.620;13.482;2024-02-15T08:22:48;18.80;;;9.10;;
78141;SDS011;67393;52.620;13.482;2024-02-15T08:25:14;20.27;;;9.45;;
78141;SDS011;67393;52.620;13.482;2024-02-15T08:27:41;21.27;;;11.20;;
78141;SDS011;67393;52.620;13.482;2024-02-15T08:30:11;22.77;;;9.73;;
78141;SDS011;67393;52.620;13.482;2024-02-15T08:32:41;20.77;;;9.43;;
78141;SDS011;67393;52.620;13.482;2024-02-15T08:35:09;16.20;;;8.13;;
78141;SDS011;67393;52.620;13.482;2024-02-15T08:37:35;16.55;;;7.88;;
78141;SDS011;67393;52.620;13.482;2024-02-15T08:40:03;17.25;;;9.05;;
78141;SDS011;67393;52.620;13.482;2024-02-15T08:44:56;16.83;;;8.20;;
78141;SDS011;67393;52.620;13.482;2024-02-15T08:47:23;19.55;;;9.40;;
78141;SDS011;67393;52.620;13.482;2024-02-15T08:49:49;18.15;;;8.23;;
78141;SDS011;67393;52.620;13.482;2024-02-15T08:52:15;16.08;;;8.32;;
78141;SDS011;67393;52.620;13.482;2024-02-15T08:54:42;17.02;;;8.27;;
78141;SDS011;67393;52.620;13.482;2024-02-15T08:57:08;14.80;;;8.02;;
78141;SDS011;67393;52.620;13.482;2024-02-15T08:59:34;14.25;;;8.20;;
78141;SDS011;67393;52.620;13.482;2024-02-15T09:02:01;15.55;;;8.40;;
78141;SDS011;67393;52.620;13.482;2024-02-15T09:04:27;16.63;;;8.48;;
78141;SDS011;67393;52.620;13.482;2024-02-15T09:06:53;18.67;;;8.57;;
78141;SDS011;67393;52.620;13.482;2024-02-15T09:09:20;16.73;;;8.18;;
78141;SDS011;67393;52.620;13.482;2024-02-15T09:11:46;15.77;;;8.27;;
78141;SDS011;67393;52.620;13.482;2024-02-15T09:14:12;20.60;;;9.18;;
78141;SDS011;67393;52.620;13.482;2024-02-15T09:16:39;15.02;;;7.63;;
78141;SDS011;67393;52.620;13.482;2024-02-15T09:19:05;15.60;;;7.78;;
78141;SDS011;67393;52.620;13.482;2024-02-15T09:21:31;16.33;;;8.18;;
78141;SDS011;67393;52.620;13.482;2024-02-15T09:23:58;16.65;;;8.32;;
78141;SDS011;67393;52.620;13.482;2024-02-15T09:26:24;14.52;;;7.75;;
78141;SDS011;67393;52.620;13.482;2024-02-15T09:28:50;16.77;;;8.82;;
78141;SDS011;67393;52.620;13.482;2024-02-15T09:31:16;13.00;;;7.18;;
78141;SDS011;67393;52.620;13.482;2024-02-15T09:33:43;14.88;;;7.97;;
78141;SDS011;67393;52.620;13.482;2024-02-15T09:36:09;12.93;;;7.45;;
78141;SDS011;67393;52.620;13.482;2024-02-15T09:38:35;16.13;;;8.02;;
78141;SDS011;67393;52.620;13.482;2024-02-15T09:41:04;16.30;;;7.75;;
78141;SDS011;67393;52.620;13.482;2024-02-15T09:43:34;16.80;;;6.90;;
78141;SDS011;67393;52.620;13.482;2024-02-15T09:46:00;13.30;;;7.50;;
78141;SDS011;67393;52.620;13.482;2024-02-15T09:48:26;14.23;;;6.72;;
78141;SDS011;67393;52.620;13.482;2024-02-15T09:50:53;15.32;;;7.07;;
78141;SDS011;67393;52.620;13.482;2024-02-15T09:53:20;11.70;;;7.15;;
78141;SDS011;67393;52.620;13.482;2024-02-15T09:55:47;12.05;;;7.07;;
78141;SDS011;67393;52.620;13.482;2024-02-15T09:58:13;13.63;;;6.57;;
78141;SDS011;67393;52.620;13.482;2024-02-15T10:00:40;13.13;;;7.18;;
78141;SDS011;67393;52.620;13.482;2024-02-15T10:03:06;13.55;;;7.28;;
78141;SDS011;67393;52.620;13.482;2024-02-15T10:05:32;16.05;;;7.80;;
78141;SDS011;67393;52.620;13.482;2024-02-15T10:07:59;10.93;;;6.53;;
78141;SDS011;67393;52.620;13.482;2024-02-15T10:10:25;14.55;;;7.15;;
78141;SDS011;67393;52.620;13.482;2024-02-15T10:12:52;11.23;;;6.47;;
78141;SDS011;67393;52.620;13.482;2024-02-15T10:15:35;11.27;;;7.18;;
78141;SDS011;67393;52.620;13.482;2024-02-15T10:18:09;12.00;;;6.32;;
78141;SDS011;67393;52.620;13.482;2024-02-15T10:20:36;14.45;;;7.15;;
78141;SDS011;67393;52.620;13.482;2024-02-15T10:25:29;18.38;;;6.53;;
78141;SDS011;67393;52.620;13.482;2024-02-15T10:28:02;11.90;;;5.60;;
78141;SDS011;67393;52.620;13.482;2024-02-15T10:30:28;12.15;;;6.20;;
78141;SDS011;67393;52.620;13.482;2024-02-15T10:32:55;14.10;;;6.63;;
78141;SDS011;67393;52.620;13.482;2024-02-15T10:35:23;12.57;;;6.13;;
78141;SDS011;67393;52.620;13.482;2024-02-15T10:37:51;11.52;;;6.35;;
78141;SDS011;67393;52.620;13.482;2024-02-15T10:40:18;9.57;;;5.53;;
78141;SDS011;67393;52.620;13.482;2024-02-15T10:42:45;8.73;;;5.38;;
78141;SDS011;67393;52.620;13.482;2024-02-15T10:45:12;12.48;;;5.97;;
78141;SDS011;67393;52.620;13.482;2024-02-15T10:47:40;10.70;;;6.10;;
78141;SDS011;67393;52.620;13.482;2024-02-15T10:52:34;9.45;;;4.95;;
78141;SDS011;67393;52.620;13.482;2024-02-15T10:55:03;11.25;;;5.80;;
78141;SDS011;67393;52.620;13.482;2024-02-15T10:57:31;12.25;;;5.72;;
78141;SDS011;67393;52.620;13.482;2024-02-15T10:59:58;14.85;;;5.75;;
78141;SDS011;67393;52.620;13.482;2024-02-15T11:02:33;9.93;;;5.88;;
78141;SDS011;67393;52.620;13.482;2024-02-15T11:05:05;8.73;;;4.78;;
78141;SDS011;67393;52.620;13.482;2024-02-15T11:07:31;9.63;;;5.70;;
78141;SDS011;67393;52.620;13.482;2024-02-15T11:09:58;6.47;;;4.20;;
78141;SDS011;67393;52.620;13.482;2024-02-15T11:12:25;8.73;;;4.70;;
78141;SDS011;67393;52.620;13.482;2024-02-15T11:14:52;7.20;;;4.13;;
78141;SDS011;67393;52.620;13.482;2024-02-15T11:20:03;8.40;;;4.40;;
78141;SDS011;67393;52.620;13.482;2024-02-15T11:22:29;10.48;;;5.03;;
78141;SDS011;67393;52.620;13.482;2024-02-15T11:24:56;7.80;;;4.53;;
78141;SDS011;67393;52.620;13.482;2024-02-15T11:27:26;7.35;;;4.30;;
78141;SDS011;67393;52.620;13.482;2024-02-15T11:29:56;7.55;;;4.43;;
78141;SDS011;67393;52.620;13.482;2024-02-15T11:35:08;7.13;;;4.47;;
78141;SDS011;67393;52.620;13.482;2024-02-15T11:37:48;7.45;;;4.35;;
78141;SDS011;67393;52.620;13.482;2024-02-15T11:40:15;7.35;;;3.92;;
78141;SDS011;67393;52.620;13.482;2024-02-15T11:42:42;7.55;;;4.63;;
78141;SDS011;67393;52.620;13.482;2024-02-15T11:45:08;6.65;;;4.05;;
78141;SDS011;67393;52.620;13.482;2024-02-15T11:47:41;7.43;;;4.05;;
78141;SDS011;67393;52.620;13.482;2024-02-15T11:50:07;11.82;;;5.32;;
78141;SDS011;67393;52.620;13.482;2024-02-15T11:52:34;7.25;;;3.50;;
78141;SDS011;67393;52.620;13.482;2024-02-15T11:55:06;6.60;;;4.20;;
78141;SDS011;67393;52.620;13.482;2024-02-15T11:57:33;6.15;;;3.97;;
78141;SDS011;67393;52.620;13.482;2024-02-15T11:59:59;7.85;;;3.67;;
78141;SDS011;67393;52.620;13.482;2024-02-15T12:02:26;5.38;;;3.33;;
78141;SDS011;67393;52.620;13.482;2024-02-15T12:04:52;8.18;;;3.42;;
78141;SDS011;67393;52.620;13.482;2024-02-15T12:07:18;6.65;;;3.70;;
78141;SDS011;67393;52.620;13.482;2024-02-15T12:09:45;5.28;;;3.42;;
78141;SDS011;67393;52.620;13.482;2024-02-15T12:12:11;7.53;;;4.03;;
78141;SDS011;67393;52.620;13.482;2024-02-15T12:14:37;6.82;;;4.07;;
78141;SDS011;67393;52.620;13.482;2024-02-15T12:17:11;9.40;;;5.05;;
78141;SDS011;67393;52.620;13.482;2024-02-15T12:22:03;9.75;;;4.65;;
78141;SDS011;67393;52.620;13.482;2024-02-15T12:24:31;7.05;;;4.18;;
78141;SDS011;67393;52.620;13.482;2024-02-15T12:27:00;12.93;;;5.72;;
78141;SDS011;67393;52.620;13.482;2024-02-15T12:29:27;8.30;;;4.53;;
78141;SDS011;67393;52.620;13.482;2024-02-15T12:31:53;11.95;;;4.72;;
78141;SDS011;67393;52.620;13.482;2024-02-15T12:34:20;8.68;;;3.97;;
78141;SDS011;67393;52.620;13.482;2024-02-15T12:36:46;9.50;;;5.03;;
78141;SDS011;67393;52.620;13.482;2024-02-15T12:39:12;9.43;;;5.30;;
78141;SDS011;67393;52.620;13.482;2024-02-15T12:41:39;7.55;;;4.55;;
78141;SDS011;67393;52.620;13.482;2024-02-15T12:44:06;9.90;;;4.18;;
78141;SDS011;67393;52.620;13.482;2024-02-15T12:46:36;10.90;;;4.32;;
78141;SDS011;67393;52.620;13.482;2024-02-15T12:51:50;11.98;;;3.72;;
78141;SDS011;67393;52.620;13.482;2024-02-15T12:54:18;6.80;;;4.10;;
78141;SDS011;67393;52.620;13.482;2024-02-15T12:56:45;11.38;;;4.15;;
78141;SDS011;67393;52.620;13.482;2024-02-15T12:59:11;7.90;;;4.30;;
78141;SDS011;67393;52.620;13.482;2024-02-15T13:01:37;9.48;;;4.10;;
78141;SDS011;67393;52.620;13.482;2024-02-15T13:04:04;7.68;;;4.15;;
78141;SDS011;67393;52.620;13.482;2024-02-15T13:06:30;4.40;;;2.92;;
78141;SDS011;67393;52.620;13.482;2024-02-15T13:08:56;5.03;;;2.97;;
78141;SDS011;67393;52.620;13.482;2024-02-15T13:11:23;9.13;;;3.63;;
78141;SDS011;67393;52.620;13.482;2024-02-15T13:13:49;5.55;;;3.05;;
78141;SDS011;67393;52.620;13.482;2024-02-15T13:16:15;7.13;;;3.63;;
78141;SDS011;67393;52.620;13.482;2024-02-15T13:18:42;5.90;;;3.38;;
78141;SDS011;67393;52.620;13.482;2024-02-15T13:21:08;4.15;;;3.10;;
78141;SDS011;67393;52.620;13.482;2024-02-15T13:23:34;5.55;;;3.22;;
78141;SDS011;67393;52.620;13.482;2024-02-15T13:26:01;6.10;;;3.88;;
78141;SDS011;67393;52.620;13.482;2024-02-15T13:28:27;6.05;;;3.30;;
78141;SDS011;67393;52.620;13.482;2024-02-15T13:30:53;7.70;;;3.58;;
78141;SDS011;67393;52.620;13.482;2024-02-15T13:33:19;7.35;;;3.47;;
78141;SDS011;67393;52.620;13.482;2024-02-15T13:35:46;9.43;;;4.13;;
78141;SDS011;67393;52.620;13.482;2024-02-15T13:38:12;7.15;;;3.30;;
78141;SDS011;67393;52.620;13.482;2024-02-15T13:40:39;9.05;;;4.55;;
78141;SDS011;67393;52.620;13.482;2024-02-15T13:43:05;8.40;;;3.47;;
78141;SDS011;67393;52.620;13.482;2024-02-15T13:45:32;9.60;;;3.90;;
78141;SDS011;67393;52.620;13.482;2024-02-15T13:48:00;9.18;;;3.70;;
78141;SDS011;67393;52.620;13.482;2024-02-15T13:50:28;9.90;;;4.10;;
78141;SDS011;67393;52.620;13.482;2024-02-15T13:52:54;6.95;;;3.88;;
78141;SDS011;67393;52.620;13.482;2024-02-15T13:55:21;7.47;;;3.55;;
78141;SDS011;67393;52.620;13.482;2024-02-15T13:57:47;7.78;;;3.65;;
78141;SDS011;67393;52.620;13.482;2024-02-15T14:00:14;7.25;;;3.63;;
78141;SDS011;67393;52.620;13.482;2024-02-15T14:02:41;7.13;;;3.42;;
78141;SDS011;67393;52.620;13.482;2024-02-15T14:05:07;6.25;;;3.45;;
78141;SDS011;67393;52.620;13.482;2024-02-15T14:07:34;6.25;;;3.58;;
78141;SDS011;67393;52.620;13.482;2024-02-15T14:10:01;8.05;;;3.72;;
78141;SDS011;67393;52.620;13.482;2024-02-15T14:12:28;5.30;;;3.10;;
78141;SDS011;67393;52.620;13.482;2024-02-15T14:14:54;8.13;;;3.50;;
78141;SDS011;67393;52.620;13.482;2024-02-15T14:17:21;7.28;;;3.33;;
78141;SDS011;67393;52.620;13.482;2024-02-15T14:19:47;6.05;;;3.15;;
78141;SDS011;67393;52.620;13.482;2024-02-15T14:22:13;7.45;;;3.60;;
78141;SDS011;67393;52.620;13.482;2024-02-15T14:24:39;5.63;;;3.20;;
78141;SDS011;67393;52.620;13.482;2024-02-15T14:27:05;8.25;;;2.97;;
78141;SDS011;67393;52.620;13.482;2024-02-15T14:29:32;8.95;;;3.03;;
78141;SDS011;67393;52.620;13.482;2024-02-15T14:31:58;6.43;;;3.10;;
78141;SDS011;67393;52.620;13.482;2024-02-15T14:34:24;5.10;;;3.00;;
78141;SDS011;67393;52.620;13.482;2024-02-15T14:36:51;7.65;;;3.45;;